sensor_id;sensor_type;location;lat;lon;timestamp;P1;durP1;ratioP1;P2;durP2;ratioP2
19589;SDS011;12231;42.782;23.388;2022-07-29T00:01:05;15.88;;;14.18;;
19589;SDS011;12231;42.782;23.388;2022-07-29T00:03:30;18.70;;;16.80;;
19589;SDS011;12231;42.782;23.388;2022-07-29T00:05:56;13.30;;;12.02;;
19589;SDS011;12231;42.782;23.388;2022-07-29T00:08:21;14.15;;;12.82;;
19589;SDS011;12231;42.782;23.388;2022-07-29T00:10:47;13.15;;;11.80;;
19589;SDS011;12231;42.782;23.388;2022-07-29T00:13:12;13.27;;;11.88;;
19589;SDS011;12231;42.782;23.388;2022-07-29T00:15:38;12.50;;;11.27;;
19589;SDS011;12231;42.782;23.388;2022-07-29T00:18:03;14.23;;;12.82;;
19589;SDS011;12231;42.782;23.388;2022-07-29T00:20:29;12.27;;;11.07;;
19589;SDS011;12231;42.782;23.388;2022-07-29T00:22:54;14.85;;;13.38;;
19589;SDS011;12231;42.782;23.388;2022-07-29T00:25:19;12.90;;;11.63;;
19589;SDS011;12231;42.782;23.388;2022-07-29T00:27:46;11.85;;;10.68;;
19589;SDS011;12231;42.782;23.388;2022-07-29T00:30:12;11.18;;;10.18;;
19589;SDS011;12231;42.782;23.388;2022-07-29T00:32:37;12.38;;;10.82;;
19589;SDS011;12231;42.782;23.388;2022-07-29T00:35:03;12.18;;;11.05;;
19589;SDS011;12231;42.782;23.388;2022-07-29T00:37:48;11.88;;;10.70;;
19589;SDS011;12231;42.782;23.388;2022-07-29T00:40:13;11.52;;;10.38;;
19589;SDS011;12231;42.782;23.388;2022-07-29T00:42:42;11.65;;;10.55;;
19589;SDS011;12231;42.782;23.388;2022-07-29T00:45:11;11.98;;;10.90;;
19589;SDS011;12231;42.782;23.388;2022-07-29T00:47:38;12.23;;;11.13;;
19589;SDS011;12231;42.782;23.388;2022-07-29T00:50:04;11.60;;;10.50;;
19589;SDS011;12231;42.782;23.388;2022-07-29T00:52:31;10.90;;;10.00;;
19589;SDS011;12231;42.782;23.388;2022-07-29T00:54:57;11.45;;;10.38;;
19589;SDS011;12231;42.782;23.388;2022-07-29T00:57:22;11.75;;;10.02;;
19589;SDS011;12231;42.782;23.388;2022-07-29T00:59:48;11.50;;;10.30;;
19589;SDS011;12231;42.782;23.388;2022-07-29T01:02:13;10.82;;;9.82;;
19589;SDS011;12231;42.782;23.388;2022-07-29T01:04:39;12.05;;;9.75;;
19589;SDS011;12231;42.782;23.388;2022-07-29T01:07:06;10.80;;;9.80;;
19589;SDS011;12231;42.782;23.388;2022-07-29T01:09:32;11.45;;;10.35;;
19589;SDS011;12231;42.782;23.388;2022-07-29T01:11:59;11.02;;;10.02;;
19589;SDS011;12231;42.782;23.388;2022-07-29T01:14:26;13.40;;;12.10;;
19589;SDS011;12231;42.782;23.388;2022-07-29T01:17:00;18.38;;;16.48;;
19589;SDS011;12231;42.782;23.388;2022-07-29T01:27:56;11.30;;;10.18;;
19589;SDS011;12231;42.782;23.388;2022-07-29T01:30:25;10.93;;;9.93;;
19589;SDS011;12231;42.782;23.388;2022-07-29T01:32:56;10.85;;;9.82;;
19589;SDS011;12231;42.782;23.388;2022-07-29T01:35:31;11.35;;;10.15;;
19589;SDS011;12231;42.782;23.388;2022-07-29T01:38:05;10.73;;;9.70;;
19589;SDS011;12231;42.782;23.388;2022-07-29T01:40:39;10.57;;;9.57;;
19589;SDS011;12231;42.782;23.388;2022-07-29T01:43:10;10.65;;;9.68;;
19589;SDS011;12231;42.782;23.388;2022-07-29T01:45:47;9.75;;;8.80;;
19589;SDS011;12231;42.782;23.388;2022-07-29T01:48:23;11.05;;;9.95;;
19589;SDS011;12231;42.782;23.388;2022-07-29T01:51:14;11.27;;;10.18;;
19589;SDS011;12231;42.782;23.388;2022-07-29T01:54:04;11.75;;;10.63;;
19589;SDS011;12231;42.782;23.388;2022-07-29T01:56:36;11.18;;;10.07;;
19589;SDS011;12231;42.782;23.388;2022-07-29T01:59:04;10.65;;;9.60;;
19589;SDS011;12231;42.782;23.388;2022-07-29T02:01:32;11.50;;;10.40;;
19589;SDS011;12231;42.782;23.388;2022-07-29T02:03:59;11.60;;;10.43;;
19589;SDS011;12231;42.782;23.388;2022-07-29T02:06:28;11.02;;;9.93;;
19589;SDS011;12231;42.782;23.388;2022-07-29T02:08:57;11.95;;;10.85;;
19589;SDS011;12231;42.782;23.388;2022-07-29T02:11:24;12.85;;;11.65;;
19589;SDS011;12231;42.782;23.388;2022-07-29T02:13:50;12.48;;;11.18;;
19589;SDS011;12231;42.782;23.388;2022-07-29T02:16:20;12.57;;;11.35;;
19589;SDS011;12231;42.782;23.388;2022-07-29T02:18:48;11.68;;;10.60;;
19589;SDS011;12231;42.782;23.388;2022-07-29T02:21:16;11.63;;;10.63;;
19589;SDS011;12231;42.782;23.388;2022-07-29T02:23:48;13.63;;;12.00;;
19589;SDS011;12231;42.782;23.388;2022-07-29T02:26:14;12.75;;;11.45;;
19589;SDS011;12231;42.782;23.388;2022-07-29T02:28:43;14.77;;;12.00;;
19589;SDS011;12231;42.782;23.388;2022-07-29T02:31:09;14.32;;;12.93;;
19589;SDS011;12231;42.782;23.388;2022-07-29T02:33:36;12.98;;;11.77;;
19589;SDS011;12231;42.782;23.388;2022-07-29T02:36:05;11.70;;;10.60;;
19589;SDS011;12231;42.782;23.388;2022-07-29T02:38:31;13.13;;;11.82;;
19589;SDS011;12231;42.782;23.388;2022-07-29T02:44:12;13.57;;;11.20;;
19589;SDS011;12231;42.782;23.388;2022-07-29T02:46:44;12.35;;;11.15;;
19589;SDS011;12231;42.782;23.388;2022-07-29T02:49:15;11.95;;;10.63;;
19589;SDS011;12231;42.782;23.388;2022-07-29T02:52:03;14.00;;;12.68;;
19589;SDS011;12231;42.782;23.388;2022-07-29T02:54:35;13.52;;;12.27;;
19589;SDS011;12231;42.782;23.388;2022-07-29T02:57:04;15.80;;;12.95;;
19589;SDS011;12231;42.782;23.388;2022-07-29T02:59:36;14.05;;;12.70;;
19589;SDS011;12231;42.782;23.388;2022-07-29T03:02:03;14.75;;;12.57;;
19589;SDS011;12231;42.782;23.388;2022-07-29T03:04:31;15.57;;;14.00;;
19589;SDS011;12231;42.782;23.388;2022-07-29T03:06:59;14.23;;;12.93;;
19589;SDS011;12231;42.782;23.388;2022-07-29T03:09:25;15.35;;;13.85;;
19589;SDS011;12231;42.782;23.388;2022-07-29T03:11:52;14.50;;;13.15;;
19589;SDS011;12231;42.782;23.388;2022-07-29T03:14:20;16.23;;;13.55;;
19589;SDS011;12231;42.782;23.388;2022-07-29T03:16:47;18.52;;;15.20;;
19589;SDS011;12231;42.782;23.388;2022-07-29T03:19:14;16.10;;;12.85;;
19589;SDS011;12231;42.782;23.388;2022-07-29T03:21:39;15.27;;;13.80;;
19589;SDS011;12231;42.782;23.388;2022-07-29T03:24:05;16.02;;;14.52;;
19589;SDS011;12231;42.782;23.388;2022-07-29T03:26:31;15.45;;;13.88;;
19589;SDS011;12231;42.782;23.388;2022-07-29T03:28:56;15.73;;;14.18;;
19589;SDS011;12231;42.782;23.388;2022-07-29T03:31:22;16.52;;;14.75;;
19589;SDS011;12231;42.782;23.388;2022-07-29T03:33:47;16.98;;;13.68;;
19589;SDS011;12231;42.782;23.388;2022-07-29T03:36:13;16.10;;;14.32;;
19589;SDS011;12231;42.782;23.388;2022-07-29T03:38:38;15.52;;;14.00;;
19589;SDS011;12231;42.782;23.388;2022-07-29T03:41:07;16.48;;;14.98;;
19589;SDS011;12231;42.782;23.388;2022-07-29T03:43:36;15.38;;;13.80;;
19589;SDS011;12231;42.782;23.388;2022-07-29T03:46:06;13.80;;;12.40;;
19589;SDS011;12231;42.782;23.388;2022-07-29T03:48:34;14.70;;;13.20;;
19589;SDS011;12231;42.782;23.388;2022-07-29T03:51:04;13.75;;;12.32;;
19589;SDS011;12231;42.782;23.388;2022-07-29T03:53:30;12.52;;;11.30;;
19589;SDS011;12231;42.782;23.388;2022-07-29T03:55:58;13.23;;;11.88;;
19589;SDS011;12231;42.782;23.388;2022-07-29T03:58:26;17.95;;;12.40;;
19589;SDS011;12231;42.782;23.388;2022-07-29T04:00:53;14.90;;;13.50;;
19589;SDS011;12231;42.782;23.388;2022-07-29T04:03:20;13.77;;;12.40;;
19589;SDS011;12231;42.782;23.388;2022-07-29T04:05:57;15.70;;;11.15;;
19589;SDS011;12231;42.782;23.388;2022-07-29T04:08:23;14.90;;;11.38;;
19589;SDS011;12231;42.782;23.388;2022-07-29T04:10:48;13.15;;;12.00;;
19589;SDS011;12231;42.782;23.388;2022-07-29T04:13:14;12.95;;;11.65;;
19589;SDS011;12231;42.782;23.388;2022-07-29T04:15:40;13.23;;;12.07;;
19589;SDS011;12231;42.782;23.388;2022-07-29T04:18:05;14.15;;;11.18;;
19589;SDS011;12231;42.782;23.388;2022-07-29T04:20:31;15.02;;;13.48;;
19589;SDS011;12231;42.782;23.388;2022-07-29T04:22:56;18.95;;;14.15;;
19589;SDS011;12231;42.782;23.388;2022-07-29T04:25:22;13.50;;;12.10;;
19589;SDS011;12231;42.782;23.388;2022-07-29T04:27:47;18.02;;;16.23;;
19589;SDS011;12231;42.782;23.388;2022-07-29T04:30:25;14.60;;;13.13;;
19589;SDS011;12231;42.782;23.388;2022-07-29T04:32:51;14.25;;;12.75;;
19589;SDS011;12231;42.782;23.388;2022-07-29T04:35:17;11.18;;;10.05;;
19589;SDS011;12231;42.782;23.388;2022-07-29T04:37:43;13.48;;;12.07;;
19589;SDS011;12231;42.782;23.388;2022-07-29T04:40:09;13.82;;;12.45;;
19589;SDS011;12231;42.782;23.388;2022-07-29T04:42:34;13.20;;;11.82;;
19589;SDS011;12231;42.782;23.388;2022-07-29T04:45:00;14.20;;;12.80;;
19589;SDS011;12231;42.782;23.388;2022-07-29T04:47:25;13.25;;;11.85;;
19589;SDS011;12231;42.782;23.388;2022-07-29T04:49:51;12.95;;;11.85;;
19589;SDS011;12231;42.782;23.388;2022-07-29T04:52:16;15.63;;;13.50;;
19589;SDS011;12231;42.782;23.388;2022-07-29T04:54:41;16.55;;;14.85;;
19589;SDS011;12231;42.782;23.388;2022-07-29T04:57:07;18.75;;;16.88;;
19589;SDS011;12231;42.782;23.388;2022-07-29T04:59:32;15.73;;;14.13;;
19589;SDS011;12231;42.782;23.388;2022-07-29T05:01:58;13.15;;;11.43;;
19589;SDS011;12231;42.782;23.388;2022-07-29T05:04:23;12.98;;;11.70;;
19589;SDS011;12231;42.782;23.388;2022-07-29T05:06:48;13.10;;;11.90;;
19589;SDS011;12231;42.782;23.388;2022-07-29T05:09:14;11.88;;;10.70;;
19589;SDS011;12231;42.782;23.388;2022-07-29T05:11:39;11.85;;;10.77;;
19589;SDS011;12231;42.782;23.388;2022-07-29T05:14:05;12.77;;;11.68;;
19589;SDS011;12231;42.782;23.388;2022-07-29T05:16:30;12.32;;;11.13;;
19589;SDS011;12231;42.782;23.388;2022-07-29T05:18:56;11.32;;;10.32;;
19589;SDS011;12231;42.782;23.388;2022-07-29T05:21:21;10.23;;;9.23;;
19589;SDS011;12231;42.782;23.388;2022-07-29T05:23:46;10.98;;;10.00;;
19589;SDS011;12231;42.782;23.388;2022-07-29T05:26:12;9.82;;;9.07;;
19589;SDS011;12231;42.782;23.388;2022-07-29T05:28:37;9.88;;;9.18;;
19589;SDS011;12231;42.782;23.388;2022-07-29T05:31:03;9.85;;;8.85;;
19589;SDS011;12231;42.782;23.388;2022-07-29T05:33:28;11.18;;;10.05;;
19589;SDS011;12231;42.782;23.388;2022-07-29T05:35:54;12.02;;;9.55;;
19589;SDS011;12231;42.782;23.388;2022-07-29T05:38:19;10.43;;;9.63;;
19589;SDS011;12231;42.782;23.388;2022-07-29T05:40:44;11.18;;;10.32;;
19589;SDS011;12231;42.782;23.388;2022-07-29T05:43:10;8.55;;;7.90;;
19589;SDS011;12231;42.782;23.388;2022-07-29T05:45:35;8.00;;;7.38;;
19589;SDS011;12231;42.782;23.388;2022-07-29T05:48:01;9.63;;;8.75;;
19589;SDS011;12231;42.782;23.388;2022-07-29T05:50:26;9.23;;;8.32;;
19589;SDS011;12231;42.782;23.388;2022-07-29T05:52:52;9.95;;;9.05;;
19589;SDS011;12231;42.782;23.388;2022-07-29T05:55:17;8.05;;;7.35;;
19589;SDS011;12231;42.782;23.388;2022-07-29T05:57:43;6.75;;;6.13;;
19589;SDS011;12231;42.782;23.388;2022-07-29T06:00:10;9.27;;;6.38;;
19589;SDS011;12231;42.782;23.388;2022-07-29T06:02:36;8.30;;;6.38;;
19589;SDS011;12231;42.782;23.388;2022-07-29T06:05:01;4.93;;;4.63;;
19589;SDS011;12231;42.782;23.388;2022-07-29T06:07:27;5.93;;;5.43;;
19589;SDS011;12231;42.782;23.388;2022-07-29T06:09:53;4.90;;;4.55;;
19589;SDS011;12231;42.782;23.388;2022-07-29T06:12:18;5.15;;;4.65;;
19589;SDS011;12231;42.782;23.388;2022-07-29T06:14:44;6.90;;;4.60;;
19589;SDS011;12231;42.782;23.388;2022-07-29T06:17:10;4.70;;;4.30;;
19589;SDS011;12231;42.782;23.388;2022-07-29T06:19:36;4.93;;;4.40;;
19589;SDS011;12231;42.782;23.388;2022-07-29T06:22:02;4.65;;;4.13;;
19589;SDS011;12231;42.782;23.388;2022-07-29T06:24:28;5.60;;;4.63;;
19589;SDS011;12231;42.782;23.388;2022-07-29T06:26:53;4.75;;;4.35;;
19589;SDS011;12231;42.782;23.388;2022-07-29T06:29:19;3.92;;;3.63;;
19589;SDS011;12231;42.782;23.388;2022-07-29T06:31:44;6.63;;;4.30;;
19589;SDS011;12231;42.782;23.388;2022-07-29T06:34:10;5.25;;;4.75;;
19589;SDS011;12231;42.782;23.388;2022-07-29T06:36:35;4.43;;;4.05;;
19589;SDS011;12231;42.782;23.388;2022-07-29T06:39:03;4.68;;;4.28;;
19589;SDS011;12231;42.782;23.388;2022-07-29T06:41:30;4.25;;;3.90;;
19589;SDS011;12231;42.782;23.388;2022-07-29T06:43:56;3.92;;;3.58;;
19589;SDS011;12231;42.782;23.388;2022-07-29T06:46:21;3.45;;;3.20;;
19589;SDS011;12231;42.782;23.388;2022-07-29T06:48:47;3.97;;;3.67;;
19589;SDS011;12231;42.782;23.388;2022-07-29T06:51:12;4.95;;;3.60;;
19589;SDS011;12231;42.782;23.388;2022-07-29T06:53:38;5.22;;;3.50;;
19589;SDS011;12231;42.782;23.388;2022-07-29T06:56:05;4.00;;;3.70;;
19589;SDS011;12231;42.782;23.388;2022-07-29T06:58:33;3.38;;;3.15;;
19589;SDS011;12231;42.782;23.388;2022-07-29T07:01:01;4.40;;;4.00;;
19589;SDS011;12231;42.782;23.388;2022-07-29T07:03:29;4.78;;;3.90;;
19589;SDS011;12231;42.782;23.388;2022-07-29T07:05:55;3.90;;;3.67;;
19589;SDS011;12231;42.782;23.388;2022-07-29T07:08:20;4.78;;;3.90;;
19589;SDS011;12231;42.782;23.388;2022-07-29T07:10:47;4.53;;;4.07;;
19589;SDS011;12231;42.782;23.388;2022-07-29T07:13:12;4.32;;;4.00;;
19589;SDS011;12231;42.782;23.388;2022-07-29T07:15:39;3.85;;;3.55;;
19589;SDS011;12231;42.782;23.388;2022-07-29T07:18:05;4.07;;;3.67;;
19589;SDS011;12231;42.782;23.388;2022-07-29T07:20:31;4.78;;;3.97;;
19589;SDS011;12231;42.782;23.388;2022-07-29T07:22:58;5.00;;;4.07;;
19589;SDS011;12231;42.782;23.388;2022-07-29T07:25:23;4.45;;;3.75;;
19589;SDS011;12231;42.782;23.388;2022-07-29T07:27:49;5.95;;;4.18;;
19589;SDS011;12231;42.782;23.388;2022-07-29T07:30:14;4.95;;;3.95;;
19589;SDS011;12231;42.782;23.388;2022-07-29T07:32:40;4.22;;;3.92;;
19589;SDS011;12231;42.782;23.388;2022-07-29T07:35:06;4.55;;;3.97;;
19589;SDS011;12231;42.782;23.388;2022-07-29T07:37:33;4.78;;;4.40;;
19589;SDS011;12231;42.782;23.388;2022-07-29T07:39:59;4.43;;;4.13;;
19589;SDS011;12231;42.782;23.388;2022-07-29T07:42:25;4.95;;;4.43;;
19589;SDS011;12231;42.782;23.388;2022-07-29T07:44:50;4.93;;;4.43;;
19589;SDS011;12231;42.782;23.388;2022-07-29T07:47:16;6.03;;;4.22;;
19589;SDS011;12231;42.782;23.388;2022-07-29T07:49:48;4.68;;;4.30;;
19589;SDS011;12231;42.782;23.388;2022-07-29T07:52:18;4.30;;;3.90;;
19589;SDS011;12231;42.782;23.388;2022-07-29T07:54:45;4.60;;;4.20;;
19589;SDS011;12231;42.782;23.388;2022-07-29T07:57:11;7.28;;;4.30;;
19589;SDS011;12231;42.782;23.388;2022-07-29T07:59:37;4.57;;;4.15;;
19589;SDS011;12231;42.782;23.388;2022-07-29T08:02:03;4.72;;;4.22;;
19589;SDS011;12231;42.782;23.388;2022-07-29T08:04:29;4.18;;;3.85;;
19589;SDS011;12231;42.782;23.388;2022-07-29T08:06:54;4.20;;;3.90;;
19589;SDS011;12231;42.782;23.388;2022-07-29T08:09:21;4.40;;;4.10;;
19589;SDS011;12231;42.782;23.388;2022-07-29T08:11:47;4.25;;;3.85;;
19589;SDS011;12231;42.782;23.388;2022-07-29T08:14:13;4.28;;;3.92;;
19589;SDS011;12231;42.782;23.388;2022-07-29T08:16:39;5.07;;;4.10;;
19589;SDS011;12231;42.782;23.388;2022-07-29T08:19:05;4.43;;;3.80;;
19589;SDS011;12231;42.782;23.388;2022-07-29T08:21:31;4.90;;;4.40;;
19589;SDS011;12231;42.782;23.388;2022-07-29T08:23:56;4.85;;;4.10;;
19589;SDS011;12231;42.782;23.388;2022-07-29T08:26:41;4.40;;;4.07;;
19589;SDS011;12231;42.782;23.388;2022-07-29T08:29:07;4.10;;;3.70;;
19589;SDS011;12231;42.782;23.388;2022-07-29T08:31:33;3.95;;;3.70;;
19589;SDS011;12231;42.782;23.388;2022-07-29T08:33:58;4.60;;;3.92;;
19589;SDS011;12231;42.782;23.388;2022-07-29T08:36:25;4.22;;;3.83;;
19589;SDS011;12231;42.782;23.388;2022-07-29T08:38:51;4.30;;;3.60;;
19589;SDS011;12231;42.782;23.388;2022-07-29T08:41:17;5.90;;;4.25;;
19589;SDS011;12231;42.782;23.388;2022-07-29T08:43:44;4.38;;;3.67;;
19589;SDS011;12231;42.782;23.388;2022-07-29T08:46:09;4.15;;;3.85;;
19589;SDS011;12231;42.782;23.388;2022-07-29T08:48:35;4.13;;;3.65;;
19589;SDS011;12231;42.782;23.388;2022-07-29T08:51:01;4.50;;;4.10;;
19589;SDS011;12231;42.782;23.388;2022-07-29T08:53:27;4.03;;;3.63;;
19589;SDS011;12231;42.782;23.388;2022-07-29T08:55:54;4.80;;;4.03;;
19589;SDS011;12231;42.782;23.388;2022-07-29T08:58:20;4.32;;;3.78;;
19589;SDS011;12231;42.782;23.388;2022-07-29T09:00:50;4.35;;;3.95;;
19589;SDS011;12231;42.782;23.388;2022-07-29T09:03:20;5.78;;;3.75;;
19589;SDS011;12231;42.782;23.388;2022-07-29T09:05:48;4.50;;;4.10;;
19589;SDS011;12231;42.782;23.388;2022-07-29T09:08:15;3.90;;;3.60;;
19589;SDS011;12231;42.782;23.388;2022-07-29T09:10:42;4.63;;;4.00;;
19589;SDS011;12231;42.782;23.388;2022-07-29T09:13:08;3.65;;;3.35;;
19589;SDS011;12231;42.782;23.388;2022-07-29T09:15:34;4.07;;;3.50;;
19589;SDS011;12231;42.782;23.388;2022-07-29T09:17:59;4.00;;;3.55;;
19589;SDS011;12231;42.782;23.388;2022-07-29T09:20:25;4.07;;;3.65;;
19589;SDS011;12231;42.782;23.388;2022-07-29T09:23:11;4.40;;;4.10;;
19589;SDS011;12231;42.782;23.388;2022-07-29T09:25:38;4.32;;;4.03;;
19589;SDS011;12231;42.782;23.388;2022-07-29T09:28:15;5.55;;;4.05;;
19589;SDS011;12231;42.782;23.388;2022-07-29T09:30:57;4.35;;;4.05;;
19589;SDS011;12231;42.782;23.388;2022-07-29T09:33:24;6.10;;;3.80;;
19589;SDS011;12231;42.782;23.388;2022-07-29T09:36:04;4.13;;;3.80;;
19589;SDS011;12231;42.782;23.388;2022-07-29T09:38:31;5.00;;;3.70;;
19589;SDS011;12231;42.782;23.388;2022-07-29T09:40:58;5.03;;;3.70;;
19589;SDS011;12231;42.782;23.388;2022-07-29T09:43:25;5.97;;;3.70;;
19589;SDS011;12231;42.782;23.388;2022-07-29T09:45:51;3.38;;;3.10;;
19589;SDS011;12231;42.782;23.388;2022-07-29T09:48:20;3.90;;;3.58;;
19589;SDS011;12231;42.782;23.388;2022-07-29T09:50:47;3.22;;;3.03;;
19589;SDS011;12231;42.782;23.388;2022-07-29T09:53:35;3.33;;;3.13;;
19589;SDS011;12231;42.782;23.388;2022-07-29T09:56:03;4.45;;;3.03;;
19589;SDS011;12231;42.782;23.388;2022-07-29T09:58:30;3.90;;;3.60;;
19589;SDS011;12231;42.782;23.388;2022-07-29T10:00:58;3.40;;;3.05;;
19589;SDS011;12231;42.782;23.388;2022-07-29T10:03:24;3.55;;;3.35;;
19589;SDS011;12231;42.782;23.388;2022-07-29T10:06:11;4.03;;;3.42;;
19589;SDS011;12231;42.782;23.388;2022-07-29T10:08:36;3.80;;;3.50;;
19589;SDS011;12231;42.782;23.388;2022-07-29T10:11:12;3.65;;;3.08;;
19589;SDS011;12231;42.782;23.388;2022-07-29T10:13:40;3.78;;;3.33;;
19589;SDS011;12231;42.782;23.388;2022-07-29T10:16:06;3.10;;;2.80;;
19589;SDS011;12231;42.782;23.388;2022-07-29T10:18:33;3.10;;;2.88;;
19589;SDS011;12231;42.782;23.388;2022-07-29T10:20:58;2.75;;;2.55;;
19589;SDS011;12231;42.782;23.388;2022-07-29T10:23:26;4.90;;;2.95;;
19589;SDS011;12231;42.782;23.388;2022-07-29T10:25:53;4.40;;;3.28;;
19589;SDS011;12231;42.782;23.388;2022-07-29T10:28:19;3.80;;;3.50;;
19589;SDS011;12231;42.782;23.388;2022-07-29T10:30:44;3.35;;;3.15;;
19589;SDS011;12231;42.782;23.388;2022-07-29T10:35:58;3.75;;;3.20;;
19589;SDS011;12231;42.782;23.388;2022-07-29T10:41:12;3.58;;;3.28;;
19589;SDS011;12231;42.782;23.388;2022-07-29T10:43:54;3.70;;;3.40;;
19589;SDS011;12231;42.782;23.388;2022-07-29T10:46:23;3.22;;;3.00;;
19589;SDS011;12231;42.782;23.388;2022-07-29T10:54:43;3.42;;;3.22;;
19589;SDS011;12231;42.782;23.388;2022-07-29T10:57:30;3.88;;;3.47;;
19589;SDS011;12231;42.782;23.388;2022-07-29T11:05:05;4.82;;;3.90;;
19589;SDS011;12231;42.782;23.388;2022-07-29T11:07:33;6.97;;;3.60;;
19589;SDS011;12231;42.782;23.388;2022-07-29T11:15:02;4.30;;;3.90;;
19589;SDS011;12231;42.782;23.388;2022-07-29T11:23:01;5.15;;;4.63;;
19589;SDS011;12231;42.782;23.388;2022-07-29T11:31:41;4.80;;;4.40;;
19589;SDS011;12231;42.782;23.388;2022-07-29T11:44:56;5.13;;;4.72;;
19589;SDS011;12231;42.782;23.388;2022-07-29T11:47:26;5.07;;;4.60;;
19589;SDS011;12231;42.782;23.388;2022-07-29T11:49:53;5.20;;;4.70;;
19589;SDS011;12231;42.782;23.388;2022-07-29T11:52:21;6.00;;;5.15;;
19589;SDS011;12231;42.782;23.388;2022-07-29T11:54:47;5.07;;;4.53;;
19589;SDS011;12231;42.782;23.388;2022-07-29T11:57:17;5.60;;;5.18;;
19589;SDS011;12231;42.782;23.388;2022-07-29T11:59:44;6.03;;;4.80;;
19589;SDS011;12231;42.782;23.388;2022-07-29T12:02:12;5.15;;;4.70;;
19589;SDS011;12231;42.782;23.388;2022-07-29T12:04:48;6.22;;;5.07;;
19589;SDS011;12231;42.782;23.388;2022-07-29T12:07:14;5.70;;;5.20;;
19589;SDS011;12231;42.782;23.388;2022-07-29T12:09:41;5.38;;;4.45;;
19589;SDS011;12231;42.782;23.388;2022-07-29T12:12:16;5.32;;;4.93;;
19589;SDS011;12231;42.782;23.388;2022-07-29T12:14:41;8.18;;;5.40;;
19589;SDS011;12231;42.782;23.388;2022-07-29T12:17:21;5.40;;;4.90;;
19589;SDS011;12231;42.782;23.388;2022-07-29T12:20:00;5.53;;;4.80;;
19589;SDS011;12231;42.782;23.388;2022-07-29T12:22:29;5.53;;;5.13;;
19589;SDS011;12231;42.782;23.388;2022-07-29T12:25:00;5.57;;;5.10;;
19589;SDS011;12231;42.782;23.388;2022-07-29T12:27:27;5.78;;;5.10;;
19589;SDS011;12231;42.782;23.388;2022-07-29T12:29:59;5.72;;;5.25;;
19589;SDS011;12231;42.782;23.388;2022-07-29T12:32:34;5.45;;;5.05;;
19589;SDS011;12231;42.782;23.388;2022-07-29T12:35:08;5.90;;;5.30;;
19589;SDS011;12231;42.782;23.388;2022-07-29T12:37:45;5.22;;;4.72;;
19589;SDS011;12231;42.782;23.388;2022-07-29T12:40:13;5.45;;;4.95;;
19589;SDS011;12231;42.782;23.388;2022-07-29T12:42:41;6.13;;;5.57;;
19589;SDS011;12231;42.782;23.388;2022-07-29T12:45:29;6.50;;;5.65;;
19589;SDS011;12231;42.782;23.388;2022-07-29T12:47:56;6.43;;;5.82;;
19589;SDS011;12231;42.782;23.388;2022-07-29T12:50:21;5.82;;;5.40;;
19589;SDS011;12231;42.782;23.388;2022-07-29T12:52:47;5.85;;;5.18;;
19589;SDS011;12231;42.782;23.388;2022-07-29T12:55:12;5.63;;;5.18;;
19589;SDS011;12231;42.782;23.388;2022-07-29T12:57:47;5.47;;;5.07;;
19589;SDS011;12231;42.782;23.388;2022-07-29T13:00:15;5.70;;;5.00;;
19589;SDS011;12231;42.782;23.388;2022-07-29T13:02:42;5.57;;;4.70;;
19589;SDS011;12231;42.782;23.388;2022-07-29T13:05:09;5.88;;;5.38;;
19589;SDS011;12231;42.782;23.388;2022-07-29T13:07:36;5.43;;;5.03;;
19589;SDS011;12231;42.782;23.388;2022-07-29T13:10:12;5.30;;;4.90;;
19589;SDS011;12231;42.782;23.388;2022-07-29T13:15:46;8.65;;;4.97;;
19589;SDS011;12231;42.782;23.388;2022-07-29T13:18:32;5.32;;;4.93;;
19589;SDS011;12231;42.782;23.388;2022-07-29T13:21:13;5.55;;;5.05;;
19589;SDS011;12231;42.782;23.388;2022-07-29T13:23:40;5.45;;;5.05;;
19589;SDS011;12231;42.782;23.388;2022-07-29T13:26:06;5.20;;;4.78;;
19589;SDS011;12231;42.782;23.388;2022-07-29T13:28:33;5.63;;;5.22;;
19589;SDS011;12231;42.782;23.388;2022-07-29T13:30:59;6.40;;;4.90;;
19589;SDS011;12231;42.782;23.388;2022-07-29T13:33:24;5.55;;;5.15;;
19589;SDS011;12231;42.782;23.388;2022-07-29T13:35:52;5.70;;;4.82;;
19589;SDS011;12231;42.782;23.388;2022-07-29T13:38:18;5.18;;;4.68;;
19589;SDS011;12231;42.782;23.388;2022-07-29T13:40:43;5.13;;;4.72;;
19589;SDS011;12231;42.782;23.388;2022-07-29T13:43:10;5.35;;;4.85;;
19589;SDS011;12231;42.782;23.388;2022-07-29T13:45:36;5.28;;;4.78;;
19589;SDS011;12231;42.782;23.388;2022-07-29T13:48:02;5.65;;;5.13;;
19589;SDS011;12231;42.782;23.388;2022-07-29T13:50:47;5.35;;;4.88;;
19589;SDS011;12231;42.782;23.388;2022-07-29T13:53:13;5.43;;;4.93;;
19589;SDS011;12231;42.782;23.388;2022-07-29T13:55:39;5.35;;;4.95;;
19589;SDS011;12231;42.782;23.388;2022-07-29T13:58:04;5.88;;;5.18;;
19589;SDS011;12231;42.782;23.388;2022-07-29T14:00:30;5.80;;;5.15;;
19589;SDS011;12231;42.782;23.388;2022-07-29T14:02:56;5.40;;;5.00;;
19589;SDS011;12231;42.782;23.388;2022-07-29T14:05:21;5.57;;;5.13;;
19589;SDS011;12231;42.782;23.388;2022-07-29T14:07:47;7.28;;;4.65;;
19589;SDS011;12231;42.782;23.388;2022-07-29T14:10:12;6.00;;;5.43;;
19589;SDS011;12231;42.782;23.388;2022-07-29T14:12:38;5.68;;;5.18;;
19589;SDS011;12231;42.782;23.388;2022-07-29T14:15:03;5.90;;;5.22;;
19589;SDS011;12231;42.782;23.388;2022-07-29T14:17:29;5.60;;;5.10;;
19589;SDS011;12231;42.782;23.388;2022-07-29T14:19:54;5.75;;;5.05;;
19589;SDS011;12231;42.782;23.388;2022-07-29T14:22:20;5.68;;;5.25;;
19589;SDS011;12231;42.782;23.388;2022-07-29T14:24:45;5.70;;;5.20;;
19589;SDS011;12231;42.782;23.388;2022-07-29T14:27:11;5.07;;;4.60;;
19589;SDS011;12231;42.782;23.388;2022-07-29T14:29:37;6.13;;;5.40;;
19589;SDS011;12231;42.782;23.388;2022-07-29T14:32:03;5.70;;;5.18;;
19589;SDS011;12231;42.782;23.388;2022-07-29T14:34:29;6.05;;;5.55;;
19589;SDS011;12231;42.782;23.388;2022-07-29T14:36:54;5.95;;;5.40;;
19589;SDS011;12231;42.782;23.388;2022-07-29T14:39:21;6.10;;;5.50;;
19589;SDS011;12231;42.782;23.388;2022-07-29T14:41:48;5.95;;;5.45;;
19589;SDS011;12231;42.782;23.388;2022-07-29T14:44:13;6.32;;;5.78;;
19589;SDS011;12231;42.782;23.388;2022-07-29T14:46:39;7.90;;;5.68;;
19589;SDS011;12231;42.782;23.388;2022-07-29T14:49:04;6.40;;;5.90;;
19589;SDS011;12231;42.782;23.388;2022-07-29T14:51:30;9.45;;;5.88;;
19589;SDS011;12231;42.782;23.388;2022-07-29T14:53:56;6.03;;;5.53;;
19589;SDS011;12231;42.782;23.388;2022-07-29T14:56:21;6.00;;;5.50;;
19589;SDS011;12231;42.782;23.388;2022-07-29T14:58:48;6.03;;;5.22;;
19589;SDS011;12231;42.782;23.388;2022-07-29T15:01:13;5.65;;;5.25;;
19589;SDS011;12231;42.782;23.388;2022-07-29T15:03:39;5.93;;;5.47;;
19589;SDS011;12231;42.782;23.388;2022-07-29T15:06:04;6.07;;;5.57;;
19589;SDS011;12231;42.782;23.388;2022-07-29T15:08:30;5.82;;;5.22;;
19589;SDS011;12231;42.782;23.388;2022-07-29T15:10:56;5.80;;;5.40;;
19589;SDS011;12231;42.782;23.388;2022-07-29T15:13:24;5.75;;;5.32;;
19589;SDS011;12231;42.782;23.388;2022-07-29T15:15:50;6.85;;;5.18;;
19589;SDS011;12231;42.782;23.388;2022-07-29T15:18:15;5.75;;;5.25;;
19589;SDS011;12231;42.782;23.388;2022-07-29T15:20:41;5.93;;;5.43;;
19589;SDS011;12231;42.782;23.388;2022-07-29T15:23:07;5.93;;;5.22;;
19589;SDS011;12231;42.782;23.388;2022-07-29T15:25:34;5.45;;;4.93;;
19589;SDS011;12231;42.782;23.388;2022-07-29T15:28:01;5.72;;;5.22;;